sensor_id;sensor_type;location;lat;lon;timestamp;P1;durP1;ratioP1;P2;durP2;ratioP2
77520;SDS011;66633;47.628;19.158;2023-06-14T00:00:49;9.15;;;4.60;;
77520;SDS011;66633;47.628;19.158;2023-06-14T00:03:15;10.93;;;6.20;;
77520;SDS011;66633;47.628;19.158;2023-06-14T00:05:42;8.18;;;4.70;;
77520;SDS011;66633;47.628;19.158;2023-06-14T00:08:08;9.63;;;5.57;;
77520;SDS011;66633;47.628;19.158;2023-06-14T00:10:38;9.43;;;5.25;;
77520;SDS011;66633;47.628;19.158;2023-06-14T00:13:06;9.23;;;5.22;;
77520;SDS011;66633;47.628;19.158;2023-06-14T00:15:32;10.52;;;5.72;;
77520;SDS011;66633;47.628;19.158;2023-06-14T00:17:58;9.35;;;5.22;;
77520;SDS011;66633;47.628;19.158;2023-06-14T00:20:30;10.27;;;5.50;;
77520;SDS011;66633;47.628;19.158;2023-06-14T00:22:57;11.77;;;6.88;;
77520;SDS011;66633;47.628;19.158;2023-06-14T00:25:23;9.15;;;5.43;;
77520;SDS011;66633;47.628;19.158;2023-06-14T00:27:53;11.00;;;5.60;;
77520;SDS011;66633;47.628;19.158;2023-06-14T00:30:18;9.63;;;5.32;;
77520;SDS011;66633;47.628;19.158;2023-06-14T00:32:45;9.80;;;5.35;;
77520;SDS011;66633;47.628;19.158;2023-06-14T00:35:10;11.13;;;5.63;;
77520;SDS011;66633;47.628;19.158;2023-06-14T00:37:36;8.90;;;4.97;;
77520;SDS011;66633;47.628;19.158;2023-06-14T00:40:02;10.02;;;5.70;;
77520;SDS011;66633;47.628;19.158;2023-06-14T00:42:29;12.00;;;6.75;;
77520;SDS011;66633;47.628;19.158;2023-06-14T00:44:55;11.75;;;6.32;;
77520;SDS011;66633;47.628;19.158;2023-06-14T00:47:21;10.07;;;6.03;;
77520;SDS011;66633;47.628;19.158;2023-06-14T00:49:47;12.80;;;7.15;;
77520;SDS011;66633;47.628;19.158;2023-06-14T00:52:13;11.95;;;6.43;;
77520;SDS011;66633;47.628;19.158;2023-06-14T00:54:40;11.90;;;6.05;;
77520;SDS011;66633;47.628;19.158;2023-06-14T00:57:07;11.30;;;5.93;;
77520;SDS011;66633;47.628;19.158;2023-06-14T00:59:32;10.60;;;6.05;;
77520;SDS011;66633;47.628;19.158;2023-06-14T01:01:59;11.35;;;5.82;;
77520;SDS011;66633;47.628;19.158;2023-06-14T01:04:24;11.38;;;6.28;;
77520;SDS011;66633;47.628;19.158;2023-06-14T01:12:19;8.50;;;4.82;;
77520;SDS011;66633;47.628;19.158;2023-06-14T01:14:50;10.85;;;5.18;;
77520;SDS011;66633;47.628;19.158;2023-06-14T01:17:18;9.60;;;5.68;;
77520;SDS011;66633;47.628;19.158;2023-06-14T01:19:44;10.57;;;6.50;;
77520;SDS011;66633;47.628;19.158;2023-06-14T01:22:10;11.27;;;5.97;;
77520;SDS011;66633;47.628;19.158;2023-06-14T01:24:36;9.75;;;5.60;;
77520;SDS011;66633;47.628;19.158;2023-06-14T01:27:04;11.30;;;5.60;;
77520;SDS011;66633;47.628;19.158;2023-06-14T01:29:32;11.52;;;5.72;;
77520;SDS011;66633;47.628;19.158;2023-06-14T01:32:01;10.40;;;5.80;;
77520;SDS011;66633;47.628;19.158;2023-06-14T01:34:28;11.25;;;6.05;;
77520;SDS011;66633;47.628;19.158;2023-06-14T01:36:54;11.23;;;6.22;;
77520;SDS011;66633;47.628;19.158;2023-06-14T01:39:20;10.13;;;5.80;;
77520;SDS011;66633;47.628;19.158;2023-06-14T01:41:47;13.07;;;7.40;;
77520;SDS011;66633;47.628;19.158;2023-06-14T01:44:16;10.68;;;5.90;;
77520;SDS011;66633;47.628;19.158;2023-06-14T01:46:43;11.38;;;6.25;;
77520;SDS011;66633;47.628;19.158;2023-06-14T01:49:10;11.88;;;6.97;;
77520;SDS011;66633;47.628;19.158;2023-06-14T01:51:36;11.85;;;6.65;;
77520;SDS011;66633;47.628;19.158;2023-06-14T01:54:02;13.13;;;6.93;;
77520;SDS011;66633;47.628;19.158;2023-06-14T01:56:27;14.65;;;7.38;;
77520;SDS011;66633;47.628;19.158;2023-06-14T01:58:53;11.65;;;6.47;;
77520;SDS011;66633;47.628;19.158;2023-06-14T02:01:18;11.07;;;6.03;;
77520;SDS011;66633;47.628;19.158;2023-06-14T02:03:46;13.30;;;7.03;;
77520;SDS011;66633;47.628;19.158;2023-06-14T02:06:13;12.25;;;6.35;;
77520;SDS011;66633;47.628;19.158;2023-06-14T02:08:38;12.10;;;6.20;;
77520;SDS011;66633;47.628;19.158;2023-06-14T02:11:05;11.00;;;6.07;;
77520;SDS011;66633;47.628;19.158;2023-06-14T02:13:30;11.73;;;6.45;;
77520;SDS011;66633;47.628;19.158;2023-06-14T02:15:55;11.77;;;6.57;;
77520;SDS011;66633;47.628;19.158;2023-06-14T02:18:22;10.70;;;5.90;;
77520;SDS011;66633;47.628;19.158;2023-06-14T02:20:48;10.98;;;6.00;;
77520;SDS011;66633;47.628;19.158;2023-06-14T02:23:13;11.63;;;6.25;;
77520;SDS011;66633;47.628;19.158;2023-06-14T02:25:39;12.27;;;6.78;;
77520;SDS011;66633;47.628;19.158;2023-06-14T02:28:05;13.02;;;6.65;;
77520;SDS011;66633;47.628;19.158;2023-06-14T02:30:31;11.95;;;5.65;;
77520;SDS011;66633;47.628;19.158;2023-06-14T02:32:56;11.93;;;5.80;;
77520;SDS011;66633;47.628;19.158;2023-06-14T02:35:22;9.20;;;5.22;;
77520;SDS011;66633;47.628;19.158;2023-06-14T02:37:51;12.25;;;6.50;;
77520;SDS011;66633;47.628;19.158;2023-06-14T02:40:17;10.43;;;5.93;;
77520;SDS011;66633;47.628;19.158;2023-06-14T02:42:43;12.27;;;6.65;;
77520;SDS011;66633;47.628;19.158;2023-06-14T02:45:08;12.65;;;6.75;;
77520;SDS011;66633;47.628;19.158;2023-06-14T02:47:34;11.25;;;6.05;;
77520;SDS011;66633;47.628;19.158;2023-06-14T02:49:59;11.63;;;6.53;;
77520;SDS011;66633;47.628;19.158;2023-06-14T02:52:25;10.45;;;5.75;;
77520;SDS011;66633;47.628;19.158;2023-06-14T02:54:51;14.13;;;5.88;;
77520;SDS011;66633;47.628;19.158;2023-06-14T02:57:17;12.20;;;6.70;;
77520;SDS011;66633;47.628;19.158;2023-06-14T02:59:42;12.02;;;6.75;;
77520;SDS011;66633;47.628;19.158;2023-06-14T03:02:08;12.48;;;7.25;;
77520;SDS011;66633;47.628;19.158;2023-06-14T03:04:33;13.30;;;6.75;;
77520;SDS011;66633;47.628;19.158;2023-06-14T03:07:02;12.98;;;6.63;;
77520;SDS011;66633;47.628;19.158;2023-06-14T03:09:34;9.80;;;5.43;;
77520;SDS011;66633;47.628;19.158;2023-06-14T03:12:03;11.65;;;6.13;;
77520;SDS011;66633;47.628;19.158;2023-06-14T03:14:29;15.40;;;7.82;;
77520;SDS011;66633;47.628;19.158;2023-06-14T03:16:56;9.75;;;5.50;;
77520;SDS011;66633;47.628;19.158;2023-06-14T03:19:22;12.05;;;5.93;;
77520;SDS011;66633;47.628;19.158;2023-06-14T03:21:48;10.68;;;5.57;;
77520;SDS011;66633;47.628;19.158;2023-06-14T03:24:14;11.95;;;5.97;;
77520;SDS011;66633;47.628;19.158;2023-06-14T03:26:41;10.45;;;6.05;;
77520;SDS011;66633;47.628;19.158;2023-06-14T03:29:07;12.15;;;6.40;;
77520;SDS011;66633;47.628;19.158;2023-06-14T03:31:33;10.73;;;5.57;;
77520;SDS011;66633;47.628;19.158;2023-06-14T03:34:06;10.60;;;6.13;;
77520;SDS011;66633;47.628;19.158;2023-06-14T03:36:31;11.45;;;6.07;;
77520;SDS011;66633;47.628;19.158;2023-06-14T03:38:58;10.80;;;5.80;;
77520;SDS011;66633;47.628;19.158;2023-06-14T03:41:23;10.73;;;5.32;;
77520;SDS011;66633;47.628;19.158;2023-06-14T03:43:50;10.68;;;6.07;;
77520;SDS011;66633;47.628;19.158;2023-06-14T03:46:15;11.15;;;5.93;;
77520;SDS011;66633;47.628;19.158;2023-06-14T03:48:41;13.95;;;7.13;;
77520;SDS011;66633;47.628;19.158;2023-06-14T03:51:06;13.18;;;6.93;;
77520;SDS011;66633;47.628;19.158;2023-06-14T03:53:32;13.45;;;6.50;;
77520;SDS011;66633;47.628;19.158;2023-06-14T03:55:58;12.55;;;6.63;;
77520;SDS011;66633;47.628;19.158;2023-06-14T03:58:25;11.40;;;6.13;;
77520;SDS011;66633;47.628;19.158;2023-06-14T04:00:50;10.38;;;5.95;;
77520;SDS011;66633;47.628;19.158;2023-06-14T04:03:15;11.18;;;6.25;;
77520;SDS011;66633;47.628;19.158;2023-06-14T04:05:41;12.80;;;6.20;;
77520;SDS011;66633;47.628;19.158;2023-06-14T04:08:07;10.88;;;5.90;;
77520;SDS011;66633;47.628;19.158;2023-06-14T04:10:34;12.77;;;7.28;;
77520;SDS011;66633;47.628;19.158;2023-06-14T04:13:00;12.65;;;7.53;;
77520;SDS011;66633;47.628;19.158;2023-06-14T04:15:26;15.07;;;9.85;;
77520;SDS011;66633;47.628;19.158;2023-06-14T04:17:53;18.48;;;12.05;;
77520;SDS011;66633;47.628;19.158;2023-06-14T04:20:22;18.60;;;10.15;;
77520;SDS011;66633;47.628;19.158;2023-06-14T04:22:49;17.73;;;10.00;;
77520;SDS011;66633;47.628;19.158;2023-06-14T04:25:14;25.27;;;12.88;;
77520;SDS011;66633;47.628;19.158;2023-06-14T04:27:40;17.77;;;10.52;;
77520;SDS011;66633;47.628;19.158;2023-06-14T04:30:06;14.90;;;8.98;;
77520;SDS011;66633;47.628;19.158;2023-06-14T04:32:33;14.20;;;8.30;;
77520;SDS011;66633;47.628;19.158;2023-06-14T04:37:50;12.45;;;7.20;;
77520;SDS011;66633;47.628;19.158;2023-06-14T04:40:15;14.45;;;8.15;;
77520;SDS011;66633;47.628;19.158;2023-06-14T04:42:41;12.10;;;6.68;;
77520;SDS011;66633;47.628;19.158;2023-06-14T04:45:10;11.23;;;6.82;;
77520;SDS011;66633;47.628;19.158;2023-06-14T04:47:36;12.77;;;7.05;;
77520;SDS011;66633;47.628;19.158;2023-06-14T04:50:02;12.88;;;7.35;;
77520;SDS011;66633;47.628;19.158;2023-06-14T04:52:28;13.57;;;8.07;;
77520;SDS011;66633;47.628;19.158;2023-06-14T04:54:55;14.82;;;8.05;;
77520;SDS011;66633;47.628;19.158;2023-06-14T04:57:21;13.35;;;6.93;;
77520;SDS011;66633;47.628;19.158;2023-06-14T04:59:47;11.05;;;6.35;;
77520;SDS011;66633;47.628;19.158;2023-06-14T05:02:13;13.48;;;7.40;;
77520;SDS011;66633;47.628;19.158;2023-06-14T05:04:39;11.75;;;6.45;;
77520;SDS011;66633;47.628;19.158;2023-06-14T05:07:08;13.18;;;7.25;;
77520;SDS011;66633;47.628;19.158;2023-06-14T05:09:39;11.77;;;6.85;;
77520;SDS011;66633;47.628;19.158;2023-06-14T05:12:04;11.13;;;6.18;;
77520;SDS011;66633;47.628;19.158;2023-06-14T05:14:32;12.32;;;6.82;;
77520;SDS011;66633;47.628;19.158;2023-06-14T05:16:58;13.15;;;7.05;;
77520;SDS011;66633;47.628;19.158;2023-06-14T05:19:24;10.48;;;6.60;;
77520;SDS011;66633;47.628;19.158;2023-06-14T05:21:50;10.10;;;5.63;;
77520;SDS011;66633;47.628;19.158;2023-06-14T05:24:15;13.52;;;7.38;;
77520;SDS011;66633;47.628;19.158;2023-06-14T05:26:42;11.80;;;6.93;;
77520;SDS011;66633;47.628;19.158;2023-06-14T05:29:08;10.52;;;6.13;;
77520;SDS011;66633;47.628;19.158;2023-06-14T05:31:33;10.13;;;6.18;;
77520;SDS011;66633;47.628;19.158;2023-06-14T05:33:59;13.35;;;8.15;;
77520;SDS011;66633;47.628;19.158;2023-06-14T05:36:24;12.25;;;7.25;;
77520;SDS011;66633;47.628;19.158;2023-06-14T05:38:52;11.43;;;6.47;;
77520;SDS011;66633;47.628;19.158;2023-06-14T05:41:27;10.65;;;6.30;;
77520;SDS011;66633;47.628;19.158;2023-06-14T05:43:53;11.98;;;6.15;;
77520;SDS011;66633;47.628;19.158;2023-06-14T05:46:20;12.70;;;6.55;;
77520;SDS011;66633;47.628;19.158;2023-06-14T05:48:50;11.70;;;7.07;;
77520;SDS011;66633;47.628;19.158;2023-06-14T05:51:16;11.98;;;7.35;;
77520;SDS011;66633;47.628;19.158;2023-06-14T05:53:47;10.40;;;6.50;;
77520;SDS011;66633;47.628;19.158;2023-06-14T05:56:13;13.95;;;6.90;;
77520;SDS011;66633;47.628;19.158;2023-06-14T05:58:39;12.35;;;6.40;;
77520;SDS011;66633;47.628;19.158;2023-06-14T06:01:05;10.18;;;6.35;;
77520;SDS011;66633;47.628;19.158;2023-06-14T06:03:31;11.20;;;6.43;;
77520;SDS011;66633;47.628;19.158;2023-06-14T06:05:57;12.70;;;6.80;;
77520;SDS011;66633;47.628;19.158;2023-06-14T06:08:22;11.75;;;6.72;;
77520;SDS011;66633;47.628;19.158;2023-06-14T06:10:48;12.57;;;7.22;;
77520;SDS011;66633;47.628;19.158;2023-06-14T06:13:13;10.55;;;6.55;;
77520;SDS011;66633;47.628;19.158;2023-06-14T06:15:39;10.48;;;6.63;;
77520;SDS011;66633;47.628;19.158;2023-06-14T06:18:04;11.18;;;6.30;;
77520;SDS011;66633;47.628;19.158;2023-06-14T06:20:29;11.20;;;6.05;;
77520;SDS011;66633;47.628;19.158;2023-06-14T06:22:59;10.02;;;6.40;;
77520;SDS011;66633;47.628;19.158;2023-06-14T06:25:26;11.73;;;6.95;;
77520;SDS011;66633;47.628;19.158;2023-06-14T06:27:52;10.10;;;6.25;;
77520;SDS011;66633;47.628;19.158;2023-06-14T06:30:24;12.07;;;6.85;;
77520;SDS011;66633;47.628;19.158;2023-06-14T06:32:50;11.43;;;6.55;;
77520;SDS011;66633;47.628;19.158;2023-06-14T06:35:16;9.70;;;6.13;;
77520;SDS011;66633;47.628;19.158;2023-06-14T06:37:41;9.95;;;6.38;;
77520;SDS011;66633;47.628;19.158;2023-06-14T06:40:07;10.02;;;6.57;;
77520;SDS011;66633;47.628;19.158;2023-06-14T06:42:33;10.70;;;6.47;;
77520;SDS011;66633;47.628;19.158;2023-06-14T06:44:59;15.80;;;6.40;;
77520;SDS011;66633;47.628;19.158;2023-06-14T06:47:24;11.52;;;7.15;;
77520;SDS011;66633;47.628;19.158;2023-06-14T06:49:50;11.25;;;7.43;;
77520;SDS011;66633;47.628;19.158;2023-06-14T06:52:16;12.75;;;7.70;;
77520;SDS011;66633;47.628;19.158;2023-06-14T06:54:41;10.48;;;6.93;;
77520;SDS011;66633;47.628;19.158;2023-06-14T06:57:06;10.30;;;5.93;;
77520;SDS011;66633;47.628;19.158;2023-06-14T06:59:32;11.60;;;6.07;;
77520;SDS011;66633;47.628;19.158;2023-06-14T07:01:58;9.20;;;5.55;;
77520;SDS011;66633;47.628;19.158;2023-06-14T07:04:24;8.93;;;5.93;;
77520;SDS011;66633;47.628;19.158;2023-06-14T07:06:49;9.02;;;5.32;;
77520;SDS011;66633;47.628;19.158;2023-06-14T07:09:15;10.32;;;6.25;;
77520;SDS011;66633;47.628;19.158;2023-06-14T07:11:44;11.02;;;6.30;;
77520;SDS011;66633;47.628;19.158;2023-06-14T07:14:10;9.82;;;5.97;;
77520;SDS011;66633;47.628;19.158;2023-06-14T07:16:36;11.18;;;7.28;;
77520;SDS011;66633;47.628;19.158;2023-06-14T07:19:02;12.18;;;6.10;;
77520;SDS011;66633;47.628;19.158;2023-06-14T07:21:28;9.68;;;6.18;;
77520;SDS011;66633;47.628;19.158;2023-06-14T07:23:54;9.63;;;5.93;;
77520;SDS011;66633;47.628;19.158;2023-06-14T07:26:20;9.15;;;5.50;;
77520;SDS011;66633;47.628;19.158;2023-06-14T07:28:46;9.57;;;5.85;;
77520;SDS011;66633;47.628;19.158;2023-06-14T07:31:13;9.50;;;5.80;;
77520;SDS011;66633;47.628;19.158;2023-06-14T07:33:39;10.35;;;6.05;;
77520;SDS011;66633;47.628;19.158;2023-06-14T07:36:05;10.55;;;6.78;;
77520;SDS011;66633;47.628;19.158;2023-06-14T07:38:31;10.60;;;6.03;;
77520;SDS011;66633;47.628;19.158;2023-06-14T07:40:56;11.68;;;6.30;;
77520;SDS011;66633;47.628;19.158;2023-06-14T07:43:22;9.20;;;5.65;;
77520;SDS011;66633;47.628;19.158;2023-06-14T07:45:47;10.25;;;5.65;;
77520;SDS011;66633;47.628;19.158;2023-06-14T07:48:13;9.30;;;5.40;;
77520;SDS011;66633;47.628;19.158;2023-06-14T07:50:38;9.13;;;5.55;;
77520;SDS011;66633;47.628;19.158;2023-06-14T07:53:03;10.00;;;5.88;;
77520;SDS011;66633;47.628;19.158;2023-06-14T07:55:29;11.27;;;6.00;;
77520;SDS011;66633;47.628;19.158;2023-06-14T07:57:55;8.20;;;5.22;;
77520;SDS011;66633;47.628;19.158;2023-06-14T08:00:21;8.95;;;5.15;;
77520;SDS011;66633;47.628;19.158;2023-06-14T08:02:46;9.32;;;6.20;;
77520;SDS011;66633;47.628;19.158;2023-06-14T08:05:12;9.50;;;5.20;;
77520;SDS011;66633;47.628;19.158;2023-06-14T08:07:38;8.77;;;5.43;;
77520;SDS011;66633;47.628;19.158;2023-06-14T08:10:04;10.38;;;5.50;;
77520;SDS011;66633;47.628;19.158;2023-06-14T08:12:31;10.13;;;5.65;;
77520;SDS011;66633;47.628;19.158;2023-06-14T08:14:57;9.73;;;5.50;;
77520;SDS011;66633;47.628;19.158;2023-06-14T08:17:23;10.07;;;5.95;;
77520;SDS011;66633;47.628;19.158;2023-06-14T08:19:48;8.77;;;5.53;;
77520;SDS011;66633;47.628;19.158;2023-06-14T08:22:14;10.75;;;6.20;;
77520;SDS011;66633;47.628;19.158;2023-06-14T08:24:40;10.50;;;6.20;;
77520;SDS011;66633;47.628;19.158;2023-06-14T08:27:06;9.43;;;5.45;;
77520;SDS011;66633;47.628;19.158;2023-06-14T08:29:31;8.55;;;5.70;;
77520;SDS011;66633;47.628;19.158;2023-06-14T08:31:57;9.43;;;6.18;;
77520;SDS011;66633;47.628;19.158;2023-06-14T08:34:23;9.30;;;6.05;;
77520;SDS011;66633;47.628;19.158;2023-06-14T08:36:49;8.15;;;5.47;;
77520;SDS011;66633;47.628;19.158;2023-06-14T08:39:15;9.40;;;6.45;;
77520;SDS011;66633;47.628;19.158;2023-06-14T08:41:41;10.00;;;6.13;;
77520;SDS011;66633;47.628;19.158;2023-06-14T08:44:10;9.98;;;6.35;;
77520;SDS011;66633;47.628;19.158;2023-06-14T08:46:36;10.57;;;6.70;;
77520;SDS011;66633;47.628;19.158;2023-06-14T08:49:02;9.55;;;5.90;;
77520;SDS011;66633;47.628;19.158;2023-06-14T08:51:30;12.05;;;6.53;;
77520;SDS011;66633;47.628;19.158;2023-06-14T08:54:01;10.30;;;6.65;;
77520;SDS011;66633;47.628;19.158;2023-06-14T08:56:31;8.77;;;5.63;;
77520;SDS011;66633;47.628;19.158;2023-06-14T08:58:57;8.23;;;5.43;;
77520;SDS011;66633;47.628;19.158;2023-06-14T09:03:51;9.80;;;5.65;;
77520;SDS011;66633;47.628;19.158;2023-06-14T09:06:19;13.00;;;5.68;;
77520;SDS011;66633;47.628;19.158;2023-06-14T09:08:48;8.48;;;5.47;;
77520;SDS011;66633;47.628;19.158;2023-06-14T09:11:14;8.88;;;5.45;;
77520;SDS011;66633;47.628;19.158;2023-06-14T09:13:43;8.75;;;5.07;;
77520;SDS011;66633;47.628;19.158;2023-06-14T09:16:09;10.57;;;5.20;;
77520;SDS011;66633;47.628;19.158;2023-06-14T09:18:35;8.93;;;5.00;;
77520;SDS011;66633;47.628;19.158;2023-06-14T09:21:13;10.20;;;5.32;;
77520;SDS011;66633;47.628;19.158;2023-06-14T09:26:15;8.15;;;5.00;;
77520;SDS011;66633;47.628;19.158;2023-06-14T09:28:48;9.68;;;5.57;;
77520;SDS011;66633;47.628;19.158;2023-06-14T09:31:19;8.65;;;4.95;;
77520;SDS011;66633;47.628;19.158;2023-06-14T09:33:49;10.05;;;5.60;;
77520;SDS011;66633;47.628;19.158;2023-06-14T09:36:18;9.60;;;5.55;;
77520;SDS011;66633;47.628;19.158;2023-06-14T09:38:53;10.23;;;5.32;;
77520;SDS011;66633;47.628;19.158;2023-06-14T09:41:39;9.13;;;5.68;;
77520;SDS011;66633;47.628;19.158;2023-06-14T09:44:06;10.15;;;5.78;;
77520;SDS011;66633;47.628;19.158;2023-06-14T09:46:33;8.18;;;5.32;;
77520;SDS011;66633;47.628;19.158;2023-06-14T09:48:59;8.15;;;5.18;;
77520;SDS011;66633;47.628;19.158;2023-06-14T09:51:26;11.63;;;5.40;;
77520;SDS011;66633;47.628;19.158;2023-06-14T09:53:52;9.15;;;5.45;;
77520;SDS011;66633;47.628;19.158;2023-06-14T09:56:27;9.50;;;5.25;;
77520;SDS011;66633;47.628;19.158;2023-06-14T09:58:56;9.95;;;5.47;;
77520;SDS011;66633;47.628;19.158;2023-06-14T10:01:26;9.05;;;5.13;;
77520;SDS011;66633;47.628;19.158;2023-06-14T10:03:55;7.97;;;5.35;;
77520;SDS011;66633;47.628;19.158;2023-06-14T10:06:29;10.98;;;5.57;;
77520;SDS011;66633;47.628;19.158;2023-06-14T10:08:59;8.57;;;5.53;;
77520;SDS011;66633;47.628;19.158;2023-06-14T10:11:28;9.45;;;5.25;;
77520;SDS011;66633;47.628;19.158;2023-06-14T10:13:54;7.78;;;4.75;;
77520;SDS011;66633;47.628;19.158;2023-06-14T10:16:31;8.10;;;4.80;;
77520;SDS011;66633;47.628;19.158;2023-06-14T10:19:06;7.95;;;4.90;;
77520;SDS011;66633;47.628;19.158;2023-06-14T10:22:00;9.02;;;5.18;;
77520;SDS011;66633;47.628;19.158;2023-06-14T10:24:32;7.78;;;4.78;;
77520;SDS011;66633;47.628;19.158;2023-06-14T10:27:01;8.60;;;4.68;;
77520;SDS011;66633;47.628;19.158;2023-06-14T10:29:27;8.95;;;4.68;;
77520;SDS011;66633;47.628;19.158;2023-06-14T10:31:57;7.60;;;4.65;;
77520;SDS011;66633;47.628;19.158;2023-06-14T10:34:28;7.55;;;4.78;;
77520;SDS011;66633;47.628;19.158;2023-06-14T10:37:27;8.05;;;5.53;;
77520;SDS011;66633;47.628;19.158;2023-06-14T10:39:46;10.00;;;5.20;;
77520;SDS011;66633;47.628;19.158;2023-06-14T10:42:12;7.70;;;4.55;;
77520;SDS011;66633;47.628;19.158;2023-06-14T10:52:28;8.55;;;4.03;;
77520;SDS011;66633;47.628;19.158;2023-06-14T10:57:40;8.55;;;4.03;;
77520;SDS011;66633;47.628;19.158;2023-06-14T11:00:07;6.88;;;3.88;;
77520;SDS011;66633;47.628;19.158;2023-06-14T11:11:15;6.20;;;3.33;;
77520;SDS011;66633;47.628;19.158;2023-06-14T11:13:44;7.43;;;3.85;;
77520;SDS011;66633;47.628;19.158;2023-06-14T11:16:14;6.45;;;3.53;;
77520;SDS011;66633;47.628;19.158;2023-06-14T11:18:41;6.57;;;3.78;;
77520;SDS011;66633;47.628;19.158;2023-06-14T11:21:07;8.80;;;4.25;;
77520;SDS011;66633;47.628;19.158;2023-06-14T11:23:34;9.45;;;6.75;;
77520;SDS011;66633;47.628;19.158;2023-06-14T11:26:00;7.82;;;4.35;;
77520;SDS011;66633;47.628;19.158;2023-06-14T11:28:35;28.02;;;18.88;;
77520;SDS011;66633;47.628;19.158;2023-06-14T11:31:04;9.48;;;5.10;;
77520;SDS011;66633;47.628;19.158;2023-06-14T11:33:29;18.30;;;14.02;;
77520;SDS011;66633;47.628;19.158;2023-06-14T11:35:55;7.60;;;5.30;;
77520;SDS011;66633;47.628;19.158;2023-06-14T11:38:20;8.35;;;4.53;;
77520;SDS011;66633;47.628;19.158;2023-06-14T11:40:46;14.50;;;10.20;;
77520;SDS011;66633;47.628;19.158;2023-06-14T11:43:11;13.07;;;9.40;;
77520;SDS011;66633;47.628;19.158;2023-06-14T11:45:38;7.85;;;4.55;;
77520;SDS011;66633;47.628;19.158;2023-06-14T11:48:04;10.60;;;4.55;;
77520;SDS011;66633;47.628;19.158;2023-06-14T11:50:29;8.35;;;4.25;;
77520;SDS011;66633;47.628;19.158;2023-06-14T11:52:55;8.60;;;4.65;;
77520;SDS011;66633;47.628;19.158;2023-06-14T11:55:22;12.05;;;6.68;;
77520;SDS011;66633;47.628;19.158;2023-06-14T11:57:48;9.07;;;4.72;;
77520;SDS011;66633;47.628;19.158;2023-06-14T12:00:14;8.38;;;4.47;;
77520;SDS011;66633;47.628;19.158;2023-06-14T12:02:40;7.63;;;4.30;;
77520;SDS011;66633;47.628;19.158;2023-06-14T12:05:06;9.80;;;4.10;;
77520;SDS011;66633;47.628;19.158;2023-06-14T12:07:36;6.07;;;3.58;;
77520;SDS011;66633;47.628;19.158;2023-06-14T12:10:07;6.35;;;3.85;;
77520;SDS011;66633;47.628;19.158;2023-06-14T12:12:36;8.32;;;4.38;;
77520;SDS011;66633;47.628;19.158;2023-06-14T12:15:06;7.80;;;4.25;;
77520;SDS011;66633;47.628;19.158;2023-06-14T12:17:33;6.50;;;3.53;;
77520;SDS011;66633;47.628;19.158;2023-06-14T12:20:04;6.70;;;3.75;;
77520;SDS011;66633;47.628;19.158;2023-06-14T12:22:51;7.13;;;3.90;;
77520;SDS011;66633;47.628;19.158;2023-06-14T12:27:57;8.35;;;3.95;;
77520;SDS011;66633;47.628;19.158;2023-06-14T12:30:23;6.85;;;3.63;;
77520;SDS011;66633;47.628;19.158;2023-06-14T12:32:49;8.18;;;3.92;;
77520;SDS011;66633;47.628;19.158;2023-06-14T12:35:16;6.80;;;4.03;;
77520;SDS011;66633;47.628;19.158;2023-06-14T12:37:42;6.60;;;3.78;;
77520;SDS011;66633;47.628;19.158;2023-06-14T12:40:08;6.30;;;3.75;;
77520;SDS011;66633;47.628;19.158;2023-06-14T12:42:34;6.55;;;4.38;;
77520;SDS011;66633;47.628;19.158;2023-06-14T12:45:00;6.88;;;4.00;;
77520;SDS011;66633;47.628;19.158;2023-06-14T12:47:25;8.20;;;3.80;;
77520;SDS011;66633;47.628;19.158;2023-06-14T12:49:53;6.25;;;3.70;;
77520;SDS011;66633;47.628;19.158;2023-06-14T12:52:19;7.32;;;3.78;;
77520;SDS011;66633;47.628;19.158;2023-06-14T12:54:44;8.02;;;3.80;;
77520;SDS011;66633;47.628;19.158;2023-06-14T12:57:11;7.40;;;4.10;;
77520;SDS011;66633;47.628;19.158;2023-06-14T12:59:36;6.78;;;3.70;;
77520;SDS011;66633;47.628;19.158;2023-06-14T13:02:18;6.20;;;3.60;;
77520;SDS011;66633;47.628;19.158;2023-06-14T13:04:47;6.00;;;3.72;;
77520;SDS011;66633;47.628;19.158;2023-06-14T13:07:12;6.88;;;3.58;;
77520;SDS011;66633;47.628;19.158;2023-06-14T13:09:40;5.82;;;3.60;;
77520;SDS011;66633;47.628;19.158;2023-06-14T13:12:05;5.78;;;3.55;;
77520;SDS011;66633;47.628;19.158;2023-06-14T13:14:31;6.78;;;3.75;;
77520;SDS011;66633;47.628;19.158;2023-06-14T13:17:00;7.88;;;3.95;;
77520;SDS011;66633;47.628;19.158;2023-06-14T13:19:26;6.38;;;3.83;;
77520;SDS011;66633;47.628;19.158;2023-06-14T13:21:51;5.82;;;3.03;;
77520;SDS011;66633;47.628;19.158;2023-06-14T13:24:16;6.28;;;3.58;;
77520;SDS011;66633;47.628;19.158;2023-06-14T13:26:42;5.65;;;3.35;;
77520;SDS011;66633;47.628;19.158;2023-06-14T13:29:08;7.35;;;4.28;;
77520;SDS011;66633;47.628;19.158;2023-06-14T13:31:33;7.32;;;3.42;;
77520;SDS011;66633;47.628;19.158;2023-06-14T13:33:58;6.00;;;3.45;;
77520;SDS011;66633;47.628;19.158;2023-06-14T13:36:24;6.97;;;3.42;;
77520;SDS011;66633;47.628;19.158;2023-06-14T13:38:49;7.13;;;3.65;;
77520;SDS011;66633;47.628;19.158;2023-06-14T13:41:16;6.28;;;3.33;;
77520;SDS011;66633;47.628;19.158;2023-06-14T13:43:42;6.03;;;3.47;;
77520;SDS011;66633;47.628;19.158;2023-06-14T13:46:07;5.50;;;3.22;;
77520;SDS011;66633;47.628;19.158;2023-06-14T13:48:32;7.63;;;3.58;;
77520;SDS011;66633;47.628;19.158;2023-06-14T13:50:59;6.47;;;3.63;;
77520;SDS011;66633;47.628;19.158;2023-06-14T13:53:25;6.07;;;3.22;;
77520;SDS011;66633;47.628;19.158;2023-06-14T13:55:50;6.72;;;3.42;;
77520;SDS011;66633;47.628;19.158;2023-06-14T13:58:17;9.60;;;3.28;;
77520;SDS011;66633;47.628;19.158;2023-06-14T14:00:43;6.57;;;3.22;;
77520;SDS011;66633;47.628;19.158;2023-06-14T14:03:09;5.78;;;3.42;;
77520;SDS011;66633;47.628;19.158;2023-06-14T14:05:34;6.22;;;3.22;;
77520;SDS011;66633;47.628;19.158;2023-06-14T14:08:00;7.13;;;3.45;;
77520;SDS011;66633;47.628;19.158;2023-06-14T14:10:25;5.53;;;3.17;;
77520;SDS011;66633;47.628;19.158;2023-06-14T14:12:51;7.10;;;3.60;;
77520;SDS011;66633;47.628;19.158;2023-06-14T14:15:17;6.30;;;3.50;;
77520;SDS011;66633;47.628;19.158;2023-06-14T14:17:43;8.40;;;3.70;;
77520;SDS011;66633;47.628;19.158;2023-06-14T14:20:09;5.90;;;3.03;;
77520;SDS011;66633;47.628;19.158;2023-06-14T14:22:37;6.20;;;3.63;;
77520;SDS011;66633;47.628;19.158;2023-06-14T14:25:03;6.25;;;3.63;;
77520;SDS011;66633;47.628;19.158;2023-06-14T14:27:28;6.35;;;3.63;;
77520;SDS011;66633;47.628;19.158;2023-06-14T14:29:54;6.40;;;3.35;;
77520;SDS011;66633;47.628;19.158;2023-06-14T14:32:19;6.45;;;3.20;;
77520;SDS011;66633;47.628;19.158;2023-06-14T14:34:45;5.60;;;3.30;;
77520;SDS011;66633;47.628;19.158;2023-06-14T14:37:10;6.22;;;3.30;;
77520;SDS011;66633;47.628;19.158;2023-06-14T14:39:36;6.88;;;3.40;;
77520;SDS011;66633;47.628;19.158;2023-06-14T14:42:02;7.03;;;3.80;;
77520;SDS011;66633;47.628;19.158;2023-06-14T14:44:27;6.47;;;3.25;;
77520;SDS011;66633;47.628;19.158;2023-06-14T14:46:52;6.80;;;3.15;;
77520;SDS011;66633;47.628;19.158;2023-06-14T14:49:18;6.60;;;3.53;;
77520;SDS011;66633;47.628;19.158;2023-06-14T14:51:43;5.57;;;3.38;;
77520;SDS011;66633;47.628;19.158;2023-06-14T14:54:09;7.53;;;3.35;;
77520;SDS011;66633;47.628;19.158;2023-06-14T14:56:34;6.70;;;4.13;;
77520;SDS011;66633;47.628;19.158;2023-06-14T14:59:00;5.97;;;3.33;;
77520;SDS011;66633;47.628;19.158;2023-06-14T15:01:26;7.20;;;3.55;;